sensor_id;sensor_type;location;lat;lon;timestamp;temperature;humidity
69595;DHT22;56800;52.142;5.364;2022-09-03T00:00:29;19.30;42.70
69595;DHT22;56800;52.142;5.364;2022-09-03T00:03:03;19.30;42.80
69595;DHT22;56800;52.142;5.364;2022-09-03T00:05:50;19.20;42.80
69595;DHT22;56800;52.142;5.364;2022-09-03T00:13:56;19.10;43.20
69595;DHT22;56800;52.142;5.364;2022-09-03T00:16:29;19.10;43.30
69595;DHT22;56800;52.142;5.364;2022-09-03T00:19:00;19.10;43.40
69595;DHT22;56800;52.142;5.364;2022-09-03T00:24:06;19.00;43.60
69595;DHT22;56800;52.142;5.364;2022-09-03T00:26:43;19.00;44.60
69595;DHT22;56800;52.142;5.364;2022-09-03T00:29:15;19.00;43.80
69595;DHT22;56800;52.142;5.364;2022-09-03T00:31:45;19.00;43.80
69595;DHT22;56800;52.142;5.364;2022-09-03T00:34:35;18.90;43.80
69595;DHT22;56800;52.142;5.364;2022-09-03T00:37:05;18.90;44.10
69595;DHT22;56800;52.142;5.364;2022-09-03T00:39:40;18.90;44.00
69595;DHT22;56800;52.142;5.364;2022-09-03T00:45:14;18.80;44.20
69595;DHT22;56800;52.142;5.364;2022-09-03T00:48:19;18.80;44.40
69595;DHT22;56800;52.142;5.364;2022-09-03T00:51:03;18.70;44.60
69595;DHT22;56800;52.142;5.364;2022-09-03T00:53:54;18.70;44.50
69595;DHT22;56800;52.142;5.364;2022-09-03T01:04:41;18.70;44.80
69595;DHT22;56800;52.142;5.364;2022-09-03T01:13:17;18.50;45.20
69595;DHT22;56800;52.142;5.364;2022-09-03T01:15:52;18.50;45.30
69595;DHT22;56800;52.142;5.364;2022-09-03T01:29:36;18.20;45.90
69595;DHT22;56800;52.142;5.364;2022-09-03T01:34:53;18.10;46.00
69595;DHT22;56800;52.142;5.364;2022-09-03T01:37:37;18.10;46.10
69595;DHT22;56800;52.142;5.364;2022-09-03T01:45:53;18.00;46.50
69595;DHT22;56800;52.142;5.364;2022-09-03T01:48:36;18.00;46.70
69595;DHT22;56800;52.142;5.364;2022-09-03T01:54:12;18.00;46.80
69595;DHT22;56800;52.142;5.364;2022-09-03T01:57:13;18.00;46.90
69595;DHT22;56800;52.142;5.364;2022-09-03T02:00:07;18.00;47.10
69595;DHT22;56800;52.142;5.364;2022-09-03T02:02:34;18.00;47.10
69595;DHT22;56800;52.142;5.364;2022-09-03T02:05:12;17.90;47.20
69595;DHT22;56800;52.142;5.364;2022-09-03T02:10:12;17.90;47.40
69595;DHT22;56800;52.142;5.364;2022-09-03T02:12:40;17.90;47.30
69595;DHT22;56800;52.142;5.364;2022-09-03T02:15:13;17.90;47.20
69595;DHT22;56800;52.142;5.364;2022-09-03T02:17:41;17.90;47.30
69595;DHT22;56800;52.142;5.364;2022-09-03T02:20:12;17.80;47.30
69595;DHT22;56800;52.142;5.364;2022-09-03T02:22:42;17.80;47.30
69595;DHT22;56800;52.142;5.364;2022-09-03T02:25:09;17.80;47.40
69595;DHT22;56800;52.142;5.364;2022-09-03T02:27:39;17.80;47.50
69595;DHT22;56800;52.142;5.364;2022-09-03T02:30:07;17.70;47.50
69595;DHT22;56800;52.142;5.364;2022-09-03T02:32:34;17.70;47.60
69595;DHT22;56800;52.142;5.364;2022-09-03T02:35:01;17.70;47.60
69595;DHT22;56800;52.142;5.364;2022-09-03T02:37:27;17.60;47.70
69595;DHT22;56800;52.142;5.364;2022-09-03T02:39:54;17.60;47.70
69595;DHT22;56800;52.142;5.364;2022-09-03T02:42:21;17.60;47.70
69595;DHT22;56800;52.142;5.364;2022-09-03T02:44:54;17.60;47.70
69595;DHT22;56800;52.142;5.364;2022-09-03T02:47:23;17.60;47.90
69595;DHT22;56800;52.142;5.364;2022-09-03T02:49:50;17.50;47.90
69595;DHT22;56800;52.142;5.364;2022-09-03T02:52:17;17.50;47.90
69595;DHT22;56800;52.142;5.364;2022-09-03T02:54:44;17.50;48.00
69595;DHT22;56800;52.142;5.364;2022-09-03T02:57:14;17.50;48.20
69595;DHT22;56800;52.142;5.364;2022-09-03T02:59:41;17.40;48.30
69595;DHT22;56800;52.142;5.364;2022-09-03T03:02:11;17.40;48.40
69595;DHT22;56800;52.142;5.364;2022-09-03T03:04:38;17.40;48.50
69595;DHT22;56800;52.142;5.364;2022-09-03T03:07:06;17.40;48.60
69595;DHT22;56800;52.142;5.364;2022-09-03T03:09:33;17.40;48.70
69595;DHT22;56800;52.142;5.364;2022-09-03T03:12:00;17.40;48.80
69595;DHT22;56800;52.142;5.364;2022-09-03T03:14:27;17.30;48.90
69595;DHT22;56800;52.142;5.364;2022-09-03T03:16:54;17.30;49.10
69595;DHT22;56800;52.142;5.364;2022-09-03T03:19:21;17.30;49.20
69595;DHT22;56800;52.142;5.364;2022-09-03T03:21:55;17.30;49.30
69595;DHT22;56800;52.142;5.364;2022-09-03T03:43:44;17.30;49.00
69595;DHT22;56800;52.142;5.364;2022-09-03T03:47:07;17.20;48.80
69595;DHT22;56800;52.142;5.364;2022-09-03T03:50:28;17.20;48.70
69595;DHT22;56800;52.142;5.364;2022-09-03T03:54:02;17.20;49.00
69595;DHT22;56800;52.142;5.364;2022-09-03T03:57:53;17.10;49.00
69595;DHT22;56800;52.142;5.364;2022-09-03T04:00:49;17.10;48.90
69595;DHT22;56800;52.142;5.364;2022-09-03T04:04:29;17.10;49.00
69595;DHT22;56800;52.142;5.364;2022-09-03T04:07:31;17.10;49.00
69595;DHT22;56800;52.142;5.364;2022-09-03T04:10:59;17.10;49.00
69595;DHT22;56800;52.142;5.364;2022-09-03T04:14:04;17.10;49.00
69595;DHT22;56800;52.142;5.364;2022-09-03T04:17:45;17.10;49.10
69595;DHT22;56800;52.142;5.364;2022-09-03T04:20:50;17.10;49.20
69595;DHT22;56800;52.142;5.364;2022-09-03T04:23:53;17.00;49.10
69595;DHT22;56800;52.142;5.364;2022-09-03T04:26:38;17.00;49.30
69595;DHT22;56800;52.142;5.364;2022-09-03T04:30:07;17.00;49.40
69595;DHT22;56800;52.142;5.364;2022-09-03T04:33:20;16.90;49.60
69595;DHT22;56800;52.142;5.364;2022-09-03T04:36:29;16.90;49.60
69595;DHT22;56800;52.142;5.364;2022-09-03T04:40:04;16.90;49.80
69595;DHT22;56800;52.142;5.364;2022-09-03T04:43:05;16.90;50.00
69595;DHT22;56800;52.142;5.364;2022-09-03T04:46:07;16.80;49.90
69595;DHT22;56800;52.142;5.364;2022-09-03T04:48:50;16.80;50.00
69595;DHT22;56800;52.142;5.364;2022-09-03T04:52:11;16.80;50.00
69595;DHT22;56800;52.142;5.364;2022-09-03T04:55:35;16.80;50.30
69595;DHT22;56800;52.142;5.364;2022-09-03T05:03:02;16.70;50.20
69595;DHT22;56800;52.142;5.364;2022-09-03T05:06:01;16.70;50.30
69595;DHT22;56800;52.142;5.364;2022-09-03T05:09:12;16.70;50.40
69595;DHT22;56800;52.142;5.364;2022-09-03T05:13:05;16.60;50.50
69595;DHT22;56800;52.142;5.364;2022-09-03T05:16:46;16.70;50.80
69595;DHT22;56800;52.142;5.364;2022-09-03T05:20:56;16.60;50.60
69595;DHT22;56800;52.142;5.364;2022-09-03T05:23:50;16.60;50.70
69595;DHT22;56800;52.142;5.364;2022-09-03T05:27:06;16.60;50.60
69595;DHT22;56800;52.142;5.364;2022-09-03T05:33:39;16.60;50.90
69595;DHT22;56800;52.142;5.364;2022-09-03T05:36:39;16.60;51.10
69595;DHT22;56800;52.142;5.364;2022-09-03T05:39:47;16.60;51.20
69595;DHT22;56800;52.142;5.364;2022-09-03T05:42:40;16.60;51.20
69595;DHT22;56800;52.142;5.364;2022-09-03T05:46:14;16.60;51.20
69595;DHT22;56800;52.142;5.364;2022-09-03T05:48:48;16.60;51.20
69595;DHT22;56800;52.142;5.364;2022-09-03T05:52:38;16.60;51.30
69595;DHT22;56800;52.142;5.364;2022-09-03T05:56:21;16.50;51.50
69595;DHT22;56800;52.142;5.364;2022-09-03T05:59:37;16.50;51.50
69595;DHT22;56800;52.142;5.364;2022-09-03T06:02:27;16.60;51.70
69595;DHT22;56800;52.142;5.364;2022-09-03T06:05:48;16.60;51.80
69595;DHT22;56800;52.142;5.364;2022-09-03T06:09:04;16.60;52.00
69595;DHT22;56800;52.142;5.364;2022-09-03T06:12:40;16.60;51.90
69595;DHT22;56800;52.142;5.364;2022-09-03T06:15:36;16.70;52.00
69595;DHT22;56800;52.142;5.364;2022-09-03T06:18:23;16.70;52.20
69595;DHT22;56800;52.142;5.364;2022-09-03T06:21:32;16.70;52.10
69595;DHT22;56800;52.142;5.364;2022-09-03T06:24:31;16.80;52.20
69595;DHT22;56800;52.142;5.364;2022-09-03T06:27:17;16.80;52.30
69595;DHT22;56800;52.142;5.364;2022-09-03T06:30:24;16.80;52.40
69595;DHT22;56800;52.142;5.364;2022-09-03T06:33:38;16.80;52.40
69595;DHT22;56800;52.142;5.364;2022-09-03T06:36:50;16.90;52.40
69595;DHT22;56800;52.142;5.364;2022-09-03T06:39:42;16.90;52.60
69595;DHT22;56800;52.142;5.364;2022-09-03T06:43:12;16.90;52.50
69595;DHT22;56800;52.142;5.364;2022-09-03T06:46:37;17.00;52.30
69595;DHT22;56800;52.142;5.364;2022-09-03T06:49:39;17.10;52.30
69595;DHT22;56800;52.142;5.364;2022-09-03T06:52:32;17.10;52.00
69595;DHT22;56800;52.142;5.364;2022-09-03T06:55:11;17.20;51.80
69595;DHT22;56800;52.142;5.364;2022-09-03T06:58:03;17.20;51.80
69595;DHT22;56800;52.142;5.364;2022-09-03T07:01:13;17.30;52.10
69595;DHT22;56800;52.142;5.364;2022-09-03T07:03:57;17.30;52.10
69595;DHT22;56800;52.142;5.364;2022-09-03T07:06:29;17.40;52.10
69595;DHT22;56800;52.142;5.364;2022-09-03T07:08:56;17.40;51.90
69595;DHT22;56800;52.142;5.364;2022-09-03T07:11:25;17.50;51.70
69595;DHT22;56800;52.142;5.364;2022-09-03T07:13:53;17.60;51.80
69595;DHT22;56800;52.142;5.364;2022-09-03T07:16:31;17.60;51.60
69595;DHT22;56800;52.142;5.364;2022-09-03T07:19:01;17.70;51.70
69595;DHT22;56800;52.142;5.364;2022-09-03T07:21:40;17.80;51.60
69595;DHT22;56800;52.142;5.364;2022-09-03T07:24:14;17.80;51.40
69595;DHT22;56800;52.142;5.364;2022-09-03T07:26:56;17.90;51.20
69595;DHT22;56800;52.142;5.364;2022-09-03T07:29:40;18.00;50.90
69595;DHT22;56800;52.142;5.364;2022-09-03T07:32:07;18.10;50.50
69595;DHT22;56800;52.142;5.364;2022-09-03T07:34:34;18.20;50.40
69595;DHT22;56800;52.142;5.364;2022-09-03T07:37:03;18.30;50.30
69595;DHT22;56800;52.142;5.364;2022-09-03T07:39:31;18.40;50.10
69595;DHT22;56800;52.142;5.364;2022-09-03T07:41:59;18.40;49.90
69595;DHT22;56800;52.142;5.364;2022-09-03T07:44:27;18.50;50.70
69595;DHT22;56800;52.142;5.364;2022-09-03T07:46:58;18.60;49.40
69595;DHT22;56800;52.142;5.364;2022-09-03T07:49:35;18.70;49.40
69595;DHT22;56800;52.142;5.364;2022-09-03T07:52:08;18.80;49.30
69595;DHT22;56800;52.142;5.364;2022-09-03T07:54:51;18.90;48.70
69595;DHT22;56800;52.142;5.364;2022-09-03T08:02:39;19.10;47.90
69595;DHT22;56800;52.142;5.364;2022-09-03T08:06:12;19.20;47.60
69595;DHT22;56800;52.142;5.364;2022-09-03T08:09:58;19.30;47.30
69595;DHT22;56800;52.142;5.364;2022-09-03T08:12:53;19.40;47.00
69595;DHT22;56800;52.142;5.364;2022-09-03T08:15:34;19.60;47.10
69595;DHT22;56800;52.142;5.364;2022-09-03T08:18:24;19.60;46.70
69595;DHT22;56800;52.142;5.364;2022-09-03T08:22:05;19.70;46.40
69595;DHT22;56800;52.142;5.364;2022-09-03T08:25:23;19.90;46.30
69595;DHT22;56800;52.142;5.364;2022-09-03T08:28:51;20.00;46.10
69595;DHT22;56800;52.142;5.364;2022-09-03T08:31:36;20.10;45.80
69595;DHT22;56800;52.142;5.364;2022-09-03T08:35:00;20.20;45.90
69595;DHT22;56800;52.142;5.364;2022-09-03T08:38:23;20.30;46.00
69595;DHT22;56800;52.142;5.364;2022-09-03T08:44:58;20.70;45.40
69595;DHT22;56800;52.142;5.364;2022-09-03T08:48:11;20.80;44.90
69595;DHT22;56800;52.142;5.364;2022-09-03T08:51:21;20.90;44.20
69595;DHT22;56800;52.142;5.364;2022-09-03T08:54:24;21.10;43.80
69595;DHT22;56800;52.142;5.364;2022-09-03T08:57:19;21.20;43.80
69595;DHT22;56800;52.142;5.364;2022-09-03T08:59:54;21.40;43.50
69595;DHT22;56800;52.142;5.364;2022-09-03T09:05:44;21.60;42.60
69595;DHT22;56800;52.142;5.364;2022-09-03T09:18:42;22.30;41.80
69595;DHT22;56800;52.142;5.364;2022-09-03T09:21:22;22.40;41.50
69595;DHT22;56800;52.142;5.364;2022-09-03T09:24:03;22.60;41.00
69595;DHT22;56800;52.142;5.364;2022-09-03T09:26:32;22.80;40.60
69595;DHT22;56800;52.142;5.364;2022-09-03T09:29:06;23.00;40.30
69595;DHT22;56800;52.142;5.364;2022-09-03T09:31:37;23.30;39.90
69595;DHT22;56800;52.142;5.364;2022-09-03T09:34:07;23.70;39.60
69595;DHT22;56800;52.142;5.364;2022-09-03T09:36:55;24.00;39.10
69595;DHT22;56800;52.142;5.364;2022-09-03T09:39:22;24.40;37.80
69595;DHT22;56800;52.142;5.364;2022-09-03T09:42:00;24.80;37.90
69595;DHT22;56800;52.142;5.364;2022-09-03T09:44:30;25.30;37.20
69595;DHT22;56800;52.142;5.364;2022-09-03T09:49:58;26.00;35.90
69595;DHT22;56800;52.142;5.364;2022-09-03T09:52:26;26.30;35.30
69595;DHT22;56800;52.142;5.364;2022-09-03T09:55:09;26.50;34.70
69595;DHT22;56800;52.142;5.364;2022-09-03T09:57:39;26.80;34.70
69595;DHT22;56800;52.142;5.364;2022-09-03T10:00:10;26.90;34.30
69595;DHT22;56800;52.142;5.364;2022-09-03T10:02:46;27.20;34.30
69595;DHT22;56800;52.142;5.364;2022-09-03T10:05:28;27.40;33.60
69595;DHT22;56800;52.142;5.364;2022-09-03T10:08:18;27.50;33.30
69595;DHT22;56800;52.142;5.364;2022-09-03T10:10:49;27.60;32.30
69595;DHT22;56800;52.142;5.364;2022-09-03T10:13:38;27.50;32.50
69595;DHT22;56800;52.142;5.364;2022-09-03T10:16:26;27.60;32.30
69595;DHT22;56800;52.142;5.364;2022-09-03T10:19:06;27.60;32.20
69595;DHT22;56800;52.142;5.364;2022-09-03T10:22:01;27.60;31.80
69595;DHT22;56800;52.142;5.364;2022-09-03T10:24:47;27.70;32.00
69595;DHT22;56800;52.142;5.364;2022-09-03T10:27:17;27.70;31.70
69595;DHT22;56800;52.142;5.364;2022-09-03T10:29:44;27.70;32.00
69595;DHT22;56800;52.142;5.364;2022-09-03T10:37:59;27.70;31.80
69595;DHT22;56800;52.142;5.364;2022-09-03T10:40:36;27.70;31.80
69595;DHT22;56800;52.142;5.364;2022-09-03T10:46:02;27.70;31.60
69595;DHT22;56800;52.142;5.364;2022-09-03T10:51:24;27.60;31.50
69595;DHT22;56800;52.142;5.364;2022-09-03T10:54:08;27.60;31.20
69595;DHT22;56800;52.142;5.364;2022-09-03T10:59:22;27.40;31.30
69595;DHT22;56800;52.142;5.364;2022-09-03T11:02:14;27.40;31.30
69595;DHT22;56800;52.142;5.364;2022-09-03T11:04:59;27.50;31.70
69595;DHT22;56800;52.142;5.364;2022-09-03T11:07:35;27.50;31.30
69595;DHT22;56800;52.142;5.364;2022-09-03T11:10:26;27.40;30.90
69595;DHT22;56800;52.142;5.364;2022-09-03T11:15:33;27.40;31.30
69595;DHT22;56800;52.142;5.364;2022-09-03T11:21:01;27.40;31.30
69595;DHT22;56800;52.142;5.364;2022-09-03T11:23:37;27.50;31.10
69595;DHT22;56800;52.142;5.364;2022-09-03T11:26:10;27.50;30.80
69595;DHT22;56800;52.142;5.364;2022-09-03T11:28:51;27.50;30.90
69595;DHT22;56800;52.142;5.364;2022-09-03T11:34:06;27.40;30.60
69595;DHT22;56800;52.142;5.364;2022-09-03T11:36:36;27.40;30.60
69595;DHT22;56800;52.142;5.364;2022-09-03T11:41:59;27.40;30.70
69595;DHT22;56800;52.142;5.364;2022-09-03T11:44:36;27.40;30.50
69595;DHT22;56800;52.142;5.364;2022-09-03T11:47:37;27.40;30.60
69595;DHT22;56800;52.142;5.364;2022-09-03T11:50:21;27.40;31.00
69595;DHT22;56800;52.142;5.364;2022-09-03T11:52:49;27.40;31.00
69595;DHT22;56800;52.142;5.364;2022-09-03T11:55:28;27.40;30.70
69595;DHT22;56800;52.142;5.364;2022-09-03T11:58:12;27.50;30.80
69595;DHT22;56800;52.142;5.364;2022-09-03T12:00:44;27.50;30.80
69595;DHT22;56800;52.142;5.364;2022-09-03T12:03:13;27.50;30.80
69595;DHT22;56800;52.142;5.364;2022-09-03T12:06:20;27.60;31.10
69595;DHT22;56800;52.142;5.364;2022-09-03T12:11:51;27.60;30.40
69595;DHT22;56800;52.142;5.364;2022-09-03T12:14:25;27.70;30.70
69595;DHT22;56800;52.142;5.364;2022-09-03T12:17:25;27.70;30.20
69595;DHT22;56800;52.142;5.364;2022-09-03T12:19:57;27.70;30.10
69595;DHT22;56800;52.142;5.364;2022-09-03T12:22:27;27.70;30.00
69595;DHT22;56800;52.142;5.364;2022-09-03T12:24:54;27.80;30.00
69595;DHT22;56800;52.142;5.364;2022-09-03T12:27:23;27.80;30.00
69595;DHT22;56800;52.142;5.364;2022-09-03T12:29:53;27.90;29.80
69595;DHT22;56800;52.142;5.364;2022-09-03T12:32:23;28.00;29.90
69595;DHT22;56800;52.142;5.364;2022-09-03T12:34:50;28.10;30.00
69595;DHT22;56800;52.142;5.364;2022-09-03T12:37:22;28.20;29.80
69595;DHT22;56800;52.142;5.364;2022-09-03T12:40:21;28.30;29.60
69595;DHT22;56800;52.142;5.364;2022-09-03T12:42:49;28.30;29.30
69595;DHT22;56800;52.142;5.364;2022-09-03T12:45:24;28.40;29.80
69595;DHT22;56800;52.142;5.364;2022-09-03T12:47:52;28.60;29.70
69595;DHT22;56800;52.142;5.364;2022-09-03T12:50:23;28.70;29.60
69595;DHT22;56800;52.142;5.364;2022-09-03T12:52:57;29.00;29.30
69595;DHT22;56800;52.142;5.364;2022-09-03T12:55:41;29.10;29.00
69595;DHT22;56800;52.142;5.364;2022-09-03T13:00:44;29.30;28.60
69595;DHT22;56800;52.142;5.364;2022-09-03T13:03:26;29.50;28.30
69595;DHT22;56800;52.142;5.364;2022-09-03T13:05:57;29.40;28.10
69595;DHT22;56800;52.142;5.364;2022-09-03T13:08:48;29.50;28.50
69595;DHT22;56800;52.142;5.364;2022-09-03T13:11:21;29.80;28.50
69595;DHT22;56800;52.142;5.364;2022-09-03T13:14:00;30.00;28.30
69595;DHT22;56800;52.142;5.364;2022-09-03T13:19:25;30.30;27.50
69595;DHT22;56800;52.142;5.364;2022-09-03T13:22:09;30.30;27.50
69595;DHT22;56800;52.142;5.364;2022-09-03T13:30:53;30.70;27.10
69595;DHT22;56800;52.142;5.364;2022-09-03T13:33:23;30.90;27.40
69595;DHT22;56800;52.142;5.364;2022-09-03T13:36:18;31.20;27.40
69595;DHT22;56800;52.142;5.364;2022-09-03T13:39:01;31.50;26.70
69595;DHT22;56800;52.142;5.364;2022-09-03T13:41:47;31.70;27.20
69595;DHT22;56800;52.142;5.364;2022-09-03T13:50:03;31.80;26.90
69595;DHT22;56800;52.142;5.364;2022-09-03T13:52:42;31.90;27.30
69595;DHT22;56800;52.142;5.364;2022-09-03T13:58:05;32.10;26.60
69595;DHT22;56800;52.142;5.364;2022-09-03T14:00:42;32.20;26.20
69595;DHT22;56800;52.142;5.364;2022-09-03T14:06:30;32.30;26.30
69595;DHT22;56800;52.142;5.364;2022-09-03T14:20:06;32.50;25.70
69595;DHT22;56800;52.142;5.364;2022-09-03T14:25:19;32.50;25.90
69595;DHT22;56800;52.142;5.364;2022-09-03T14:27:46;32.40;25.60
69595;DHT22;56800;52.142;5.364;2022-09-03T14:41:02;32.30;25.70
69595;DHT22;56800;52.142;5.364;2022-09-03T14:46:30;32.30;26.00
69595;DHT22;56800;52.142;5.364;2022-09-03T15:08:11;32.40;25.70
69595;DHT22;56800;52.142;5.364;2022-09-03T15:10:51;32.30;25.30
69595;DHT22;56800;52.142;5.364;2022-09-03T15:13:52;32.30;25.70
69595;DHT22;56800;52.142;5.364;2022-09-03T15:19:27;32.40;25.80
69595;DHT22;56800;52.142;5.364;2022-09-03T15:22:08;32.40;25.80
69595;DHT22;56800;52.142;5.364;2022-09-03T15:27:38;32.40;26.10
69595;DHT22;56800;52.142;5.364;2022-09-03T15:30:11;32.40;25.80
69595;DHT22;56800;52.142;5.364;2022-09-03T15:41:23;31.80;26.50
69595;DHT22;56800;52.142;5.364;2022-09-03T15:43:58;31.70;26.60
69595;DHT22;56800;52.142;5.364;2022-09-03T15:52:07;31.30;26.60
69595;DHT22;56800;52.142;5.364;2022-09-03T16:02:33;30.80;27.10
69595;DHT22;56800;52.142;5.364;2022-09-03T16:05:27;30.80;27.20
69595;DHT22;56800;52.142;5.364;2022-09-03T16:11:29;30.60;27.30
69595;DHT22;56800;52.142;5.364;2022-09-03T16:14:19;30.50;27.60
69595;DHT22;56800;52.142;5.364;2022-09-03T16:17:07;30.40;27.70
69595;DHT22;56800;52.142;5.364;2022-09-03T16:22:28;30.20;28.30
69595;DHT22;56800;52.142;5.364;2022-09-03T16:25:00;30.10;28.30
69595;DHT22;56800;52.142;5.364;2022-09-03T16:27:41;30.00;28.20
69595;DHT22;56800;52.142;5.364;2022-09-03T16:30:20;30.00;28.30
69595;DHT22;56800;52.142;5.364;2022-09-03T16:33:23;29.90;28.50
69595;DHT22;56800;52.142;5.364;2022-09-03T16:38:47;29.70;28.40
69595;DHT22;56800;52.142;5.364;2022-09-03T16:46:50;29.60;29.10
69595;DHT22;56800;52.142;5.364;2022-09-03T16:49:33;29.50;28.90
69595;DHT22;56800;52.142;5.364;2022-09-03T16:52:10;29.40;29.10
69595;DHT22;56800;52.142;5.364;2022-09-03T16:57:44;29.30;29.40
69595;DHT22;56800;52.142;5.364;2022-09-03T17:00:19;29.20;29.50
69595;DHT22;56800;52.142;5.364;2022-09-03T17:08:46;28.90;29.90
69595;DHT22;56800;52.142;5.364;2022-09-03T17:11:38;28.80;30.00
69595;DHT22;56800;52.142;5.364;2022-09-03T17:14:35;28.60;30.40
69595;DHT22;56800;52.142;5.364;2022-09-03T17:20:04;28.40;30.50
69595;DHT22;56800;52.142;5.364;2022-09-03T17:22:36;28.40;30.80
69595;DHT22;56800;52.142;5.364;2022-09-03T17:31:18;28.00;31.50
69595;DHT22;56800;52.142;5.364;2022-09-03T17:34:15;27.80;31.40
69595;DHT22;56800;52.142;5.364;2022-09-03T17:36:58;27.80;31.90
69595;DHT22;56800;52.142;5.364;2022-09-03T17:42:59;27.60;32.20
69595;DHT22;56800;52.142;5.364;2022-09-03T17:48:48;27.40;32.70
69595;DHT22;56800;52.142;5.364;2022-09-03T17:51:32;27.30;33.10
69595;DHT22;56800;52.142;5.364;2022-09-03T17:59:30;26.90;33.50
69595;DHT22;56800;52.142;5.364;2022-09-03T18:02:09;26.80;33.80
69595;DHT22;56800;52.142;5.364;2022-09-03T18:04:52;26.70;34.40
69595;DHT22;56800;52.142;5.364;2022-09-03T18:10:27;26.40;34.50
69595;DHT22;56800;52.142;5.364;2022-09-03T18:13:10;26.30;34.40
69595;DHT22;56800;52.142;5.364;2022-09-03T18:15:53;26.30;34.30
69595;DHT22;56800;52.142;5.364;2022-09-03T18:18:27;26.20;34.50
69595;DHT22;56800;52.142;5.364;2022-09-03T18:20:59;26.10;35.20
69595;DHT22;56800;52.142;5.364;2022-09-03T18:24:10;25.90;35.30
69595;DHT22;56800;52.142;5.364;2022-09-03T18:27:11;25.80;35.60
69595;DHT22;56800;52.142;5.364;2022-09-03T18:30:11;25.70;35.90
69595;DHT22;56800;52.142;5.364;2022-09-03T18:32:57;25.50;36.10
69595;DHT22;56800;52.142;5.364;2022-09-03T18:35:44;25.50;36.10
69595;DHT22;56800;52.142;5.364;2022-09-03T18:38:34;25.40;36.20
69595;DHT22;56800;52.142;5.364;2022-09-03T18:41:46;25.30;36.20
69595;DHT22;56800;52.142;5.364;2022-09-03T18:44:47;25.20;36.40
69595;DHT22;56800;52.142;5.364;2022-09-03T18:51:00;24.90;37.90
69595;DHT22;56800;52.142;5.364;2022-09-03T19:00:10;24.50;38.40
69595;DHT22;56800;52.142;5.364;2022-09-03T19:03:18;24.40;38.70
69595;DHT22;56800;52.142;5.364;2022-09-03T19:06:33;24.30;38.90
69595;DHT22;56800;52.142;5.364;2022-09-03T19:09:34;24.30;38.70
69595;DHT22;56800;52.142;5.364;2022-09-03T19:15:36;24.20;39.20
69595;DHT22;56800;52.142;5.364;2022-09-03T19:21:19;24.10;39.20
69595;DHT22;56800;52.142;5.364;2022-09-03T19:24:06;24.10;39.20
69595;DHT22;56800;52.142;5.364;2022-09-03T19:30:32;24.00;39.50
69595;DHT22;56800;52.142;5.364;2022-09-03T19:33:32;23.90;39.40
69595;DHT22;56800;52.142;5.364;2022-09-03T19:39:50;23.80;39.60
69595;DHT22;56800;52.142;5.364;2022-09-03T19:49:34;23.60;40.30
69595;DHT22;56800;52.142;5.364;2022-09-03T19:55:25;23.40;40.80
69595;DHT22;56800;52.142;5.364;2022-09-03T19:58:16;23.30;41.90
69595;DHT22;56800;52.142;5.364;2022-09-03T20:01:10;23.30;41.10
69595;DHT22;56800;52.142;5.364;2022-09-03T20:03:58;23.20;41.20
69595;DHT22;56800;52.142;5.364;2022-09-03T20:06:45;23.20;41.40
69595;DHT22;56800;52.142;5.364;2022-09-03T20:09:34;23.20;41.50
69595;DHT22;56800;52.142;5.364;2022-09-03T20:12:23;23.10;41.70
69595;DHT22;56800;52.142;5.364;2022-09-03T20:14:50;23.00;41.60
69595;DHT22;56800;52.142;5.364;2022-09-03T20:17:29;23.00;41.60
69595;DHT22;56800;52.142;5.364;2022-09-03T20:23:20;22.90;43.00
69595;DHT22;56800;52.142;5.364;2022-09-03T20:34:42;22.80;42.50
69595;DHT22;56800;52.142;5.364;2022-09-03T20:43:15;22.60;42.90
69595;DHT22;56800;52.142;5.364;2022-09-03T20:45:52;22.60;43.20
69595;DHT22;56800;52.142;5.364;2022-09-03T20:51:31;22.60;43.40
69595;DHT22;56800;52.142;5.364;2022-09-03T20:54:28;22.50;43.20
69595;DHT22;56800;52.142;5.364;2022-09-03T20:57:11;22.50;43.10
69595;DHT22;56800;52.142;5.364;2022-09-03T21:12:38;22.30;43.90
69595;DHT22;56800;52.142;5.364;2022-09-03T21:26:08;22.10;44.40
69595;DHT22;56800;52.142;5.364;2022-09-03T21:29:07;22.10;44.80
69595;DHT22;56800;52.142;5.364;2022-09-03T21:34:20;22.00;45.00
69595;DHT22;56800;52.142;5.364;2022-09-03T21:36:50;21.90;45.10
69595;DHT22;56800;52.142;5.364;2022-09-03T21:39:27;21.80;45.10
69595;DHT22;56800;52.142;5.364;2022-09-03T21:42:06;21.80;45.10
69595;DHT22;56800;52.142;5.364;2022-09-03T21:47:18;21.80;45.20
69595;DHT22;56800;52.142;5.364;2022-09-03T21:50:07;21.70;45.20
69595;DHT22;56800;52.142;5.364;2022-09-03T21:52:53;21.70;45.40
69595;DHT22;56800;52.142;5.364;2022-09-03T21:55:43;21.60;45.50
69595;DHT22;56800;52.142;5.364;2022-09-03T22:01:21;21.50;45.70
69595;DHT22;56800;52.142;5.364;2022-09-03T22:03:51;21.50;45.90
69595;DHT22;56800;52.142;5.364;2022-09-03T22:06:27;21.50;45.90
69595;DHT22;56800;52.142;5.364;2022-09-03T22:11:56;21.40;46.10
69595;DHT22;56800;52.142;5.364;2022-09-03T22:14:28;21.40;46.20
69595;DHT22;56800;52.142;5.364;2022-09-03T22:17:02;21.30;46.30
69595;DHT22;56800;52.142;5.364;2022-09-03T22:19:34;21.30;46.50
69595;DHT22;56800;52.142;5.364;2022-09-03T22:22:13;21.30;46.50
69595;DHT22;56800;52.142;5.364;2022-09-03T22:24:47;21.20;46.70
69595;DHT22;56800;52.142;5.364;2022-09-03T22:30:13;21.10;46.90
69595;DHT22;56800;52.142;5.364;2022-09-03T22:35:54;21.10;47.40
69595;DHT22;56800;52.142;5.364;2022-09-03T22:42:09;20.90;47.70
69595;DHT22;56800;52.142;5.364;2022-09-03T22:52:28;20.70;48.50
69595;DHT22;56800;52.142;5.364;2022-09-03T22:55:13;20.70;48.60
69595;DHT22;56800;52.142;5.364;2022-09-03T22:57:59;20.60;48.90
69595;DHT22;56800;52.142;5.364;2022-09-03T23:00:28;20.60;49.10
69595;DHT22;56800;52.142;5.364;2022-09-03T23:03:03;20.50;49.20
69595;DHT22;56800;52.142;5.364;2022-09-03T23:05:49;20.50;49.40
69595;DHT22;56800;52.142;5.364;2022-09-03T23:08:21;20.50;49.60
69595;DHT22;56800;52.142;5.364;2022-09-03T23:11:20;20.40;49.60
69595;DHT22;56800;52.142;5.364;2022-09-03T23:14:02;20.40;49.70
69595;DHT22;56800;52.142;5.364;2022-09-03T23:17:02;20.40;49.80
69595;DHT22;56800;52.142;5.364;2022-09-03T23:19:45;20.30;50.10
69595;DHT22;56800;52.142;5.364;2022-09-03T23:25:15;20.20;50.40
69595;DHT22;56800;52.142;5.364;2022-09-03T23:28:09;20.20;50.60
69595;DHT22;56800;52.142;5.364;2022-09-03T23:30:39;20.10;50.70
69595;DHT22;56800;52.142;5.364;2022-09-03T23:33:07;20.10;51.70
69595;DHT22;56800;52.142;5.364;2022-09-03T23:35:47;20.10;50.80
69595;DHT22;56800;52.142;5.364;2022-09-03T23:38:35;20.10;51.10
69595;DHT22;56800;52.142;5.364;2022-09-03T23:41:10;20.10;51.30
69595;DHT22;56800;52.142;5.364;2022-09-03T23:43:59;20.00;51.50
69595;DHT22;56800;52.142;5.364;2022-09-03T23:46:57;19.90;51.50